This is the latest recevied weather packets stored in our database for station/object Kozakov. If no packets are shown the sender has not sent any weather packets the latest 1 day(s).
| Time | Temp. | Humidity | Pressure | Rain* | Wind** | Luminosity | Snow |
|---|---|---|---|---|---|---|---|
| 1777998918 | 16.11° C | 85% | - | - | 1.79 m/s, 32° | - | - |
| 1777998619 | 17.22° C | 82% | - | - | 3.13 m/s, 22° | - | - |
| 1777998325 | 17.22° C | 81% | - | - | 3.13 m/s, 25° | - | - |
| 1777998017 | 16.11° C | 81% | - | - | 4.02 m/s, 27° | - | - |
| 1777997718 | 17.22° C | 77% | - | - | 3.13 m/s, 33° | - | - |
| 1777997417 | 17.22° C | 74% | - | - | 3.13 m/s, 24° | - | - |
| 1777997117 | 17.22° C | 72% | - | - | 3.13 m/s, 29° | - | - |
| 1777996817 | 17.22° C | 68% | - | - | 3.13 m/s, 15° | - | - |
| 1777996517 | 17.22° C | 65% | - | - | 3.13 m/s, 20° | - | - |
| 1777996217 | 17.78° C | 62% | - | - | 1.79 m/s, 20° | - | - |
| 1777995917 | 17.78° C | 60% | - | - | 1.79 m/s, 25° | - | - |
| 1777995617 | 17.78° C | 60% | - | - | 0.89 m/s, 16° | - | - |
| 1777995311 | 17.78° C | 58% | - | - | 0 m/s | - | - |
| 1777995017 | 17.78° C | 56% | - | - | 0.89 m/s, 352° | - | - |
| 1777994718 | 17.78° C | 55% | - | - | 0.89 m/s, 33° | - | - |
| 1777994419 | 17.78° C | 49% | - | - | 0 m/s | - | - |
| 1777994117 | 20° C | 44% | - | - | 0 m/s | - | - |
| 1777993817 | 18.89° C | 45% | - | - | 1.79 m/s, 243° | - | - |
| 1777993518 | 18.89° C | 45% | - | - | 0.89 m/s, 242° | - | - |
| 1777993217 | 18.89° C | 44% | - | - | 1.79 m/s, 235° | - | - |
| 1777992918 | 18.89° C | 44% | - | - | 1.79 m/s, 212° | - | - |
| 1777992624 | 18.89° C | 44% | - | - | 1.79 m/s, 207° | - | - |
| 1777992317 | 18.89° C | 43% | - | - | 0.89 m/s, 238° | - | - |
| 1777992017 | 20° C | 44% | - | - | 0 m/s | - | - |
| 1777991718 | 18.89° C | 44% | - | - | 0 m/s | - | - |
* Rain since midnight (hover to see other rain measurements)
** Current wind speed in m/s (hover to see current wind gust speed)